KTBR/TBR METAR and TAF weather

Enter ICAO airport designator
Station Type Date Time Source
KTBR METAR 2018/12/13 06:15 UTC NOAA

KTBR 130615Z AUTO 00000KT 10SM CLR 00/00 A3025 RMK AO2 T00040003


Station Type Date Time Source
KTBR Decoded METAR 2018/12/13 06:15 UTC NOAA

Statesboro, Statesboro-Bulloch County Airport, GA, United States (KTBR) 32-28-59N 081-44-14W
Dec 13, 2018 - 01:15 AM EST / 2018.12.13 0615 UTC
Wind: Calm:0
Visibility: 10 mile(s):0
Sky conditions: clear
Temperature: 32.7 F (0.4 C)
Dew Point: 32.5 F (0.3 C)
Relative Humidity: 99%
Pressure (altimeter): 30.25 in. Hg (1024 hPa)
ob: KTBR 130615Z AUTO 00000KT 10SM CLR 00/00 A3025 RMK AO2 T00040003
cycle: 6

Station Type Date Time Source
KTBR TAF UTC NOAA

Error!


Example: see airport list